sensor_id;sensor_type;location;lat;lon;timestamp;pressure;altitude;pressure_sealevel;temperature;humidity
73341;BME280;61578;52.002;5.468;2023-04-28T00:00:05;101352.53;;;10.83;48.38
73341;BME280;61578;52.002;5.468;2023-04-28T00:00:36;101350.88;;;10.81;47.67
73341;BME280;61578;52.002;5.468;2023-04-28T00:01:07;101358.78;;;10.82;48.41
73341;BME280;61578;52.002;5.468;2023-04-28T00:01:38;101354.47;;;10.80;48.09
73341;BME280;61578;52.002;5.468;2023-04-28T00:02:09;101360.66;;;10.80;49.15
73341;BME280;61578;52.002;5.468;2023-04-28T00:02:41;101357.13;;;10.80;48.62
73341;BME280;61578;52.002;5.468;2023-04-28T00:03:12;101360.66;;;10.80;48.64
73341;BME280;61578;52.002;5.468;2023-04-28T00:03:43;101361.44;;;10.82;47.19
73341;BME280;61578;52.002;5.468;2023-04-28T00:04:14;101352.69;;;10.80;47.42
73341;BME280;61578;52.002;5.468;2023-04-28T00:04:44;101355.09;;;10.85;47.19
73341;BME280;61578;52.002;5.468;2023-04-28T00:05:16;101333.44;;;10.77;47.38
73341;BME280;61578;52.002;5.468;2023-04-28T00:05:47;101354.22;;;10.84;48.05
73341;BME280;61578;52.002;5.468;2023-04-28T00:06:18;101349.78;;;10.85;48.04
73341;BME280;61578;52.002;5.468;2023-04-28T00:06:49;101346.19;;;10.86;48.18
73341;BME280;61578;52.002;5.468;2023-04-28T00:07:20;101340.88;;;10.86;47.50
73341;BME280;61578;52.002;5.468;2023-04-28T00:07:50;101340.00;;;10.85;47.42
73341;BME280;61578;52.002;5.468;2023-04-28T00:08:21;101343.59;;;10.84;48.01
73341;BME280;61578;52.002;5.468;2023-04-28T00:08:57;101332.91;;;10.86;48.83
73341;BME280;61578;52.002;5.468;2023-04-28T00:09:28;101334.78;;;10.84;49.73
73341;BME280;61578;52.002;5.468;2023-04-28T00:09:59;101335.63;;;10.84;48.51
73341;BME280;61578;52.002;5.468;2023-04-28T00:10:30;101331.34;;;10.82;47.38
73341;BME280;61578;52.002;5.468;2023-04-28T00:11:00;101332.13;;;10.84;47.60
73341;BME280;61578;52.002;5.468;2023-04-28T00:11:31;101316.72;;;10.75;47.69
73341;BME280;61578;52.002;5.468;2023-04-28T00:12:02;101330.25;;;10.86;47.13
73341;BME280;61578;52.002;5.468;2023-04-28T00:12:32;101331.97;;;10.87;48.26
73341;BME280;61578;52.002;5.468;2023-04-28T00:13:03;101338.22;;;10.86;47.67
73341;BME280;61578;52.002;5.468;2023-04-28T00:13:34;101331.97;;;10.87;48.58
73341;BME280;61578;52.002;5.468;2023-04-28T00:14:05;101333.69;;;10.88;47.42
73341;BME280;61578;52.002;5.468;2023-04-28T00:14:38;101333.69;;;10.88;48.30
73341;BME280;61578;52.002;5.468;2023-04-28T00:15:10;101333.69;;;10.88;46.68
73341;BME280;61578;52.002;5.468;2023-04-28T00:15:40;101331.09;;;10.86;47.38
73341;BME280;61578;52.002;5.468;2023-04-28T00:16:11;101300.38;;;10.66;47.65
73341;BME280;61578;52.002;5.468;2023-04-28T00:16:42;101337.28;;;10.87;47.72
73341;BME280;61578;52.002;5.468;2023-04-28T00:17:12;101332.91;;;10.86;47.01
73341;BME280;61578;52.002;5.468;2023-04-28T00:17:43;101324.94;;;10.86;47.25
73341;BME280;61578;52.002;5.468;2023-04-28T00:18:14;101332.03;;;10.85;47.89
73341;BME280;61578;52.002;5.468;2023-04-28T00:18:44;101331.97;;;10.87;47.87
73341;BME280;61578;52.002;5.468;2023-04-28T00:19:15;101326.66;;;10.87;47.76
73341;BME280;61578;52.002;5.468;2023-04-28T00:19:46;101325.00;;;10.84;47.22
73341;BME280;61578;52.002;5.468;2023-04-28T00:20:17;101316.97;;;10.86;46.95
73341;BME280;61578;52.002;5.468;2023-04-28T00:20:48;101317.03;;;10.84;47.59
73341;BME280;61578;52.002;5.468;2023-04-28T00:21:19;101314.38;;;10.84;47.73
73341;BME280;61578;52.002;5.468;2023-04-28T00:21:49;101315.41;;;10.82;48.23
73341;BME280;61578;52.002;5.468;2023-04-28T00:22:20;101308.31;;;10.82;48.66
73341;BME280;61578;52.002;5.468;2023-04-28T00:22:51;101306.59;;;10.81;48.30
73341;BME280;61578;52.002;5.468;2023-04-28T00:23:21;101304.78;;;10.82;48.36
73341;BME280;61578;52.002;5.468;2023-04-28T00:23:55;101305.94;;;10.78;48.25
73341;BME280;61578;52.002;5.468;2023-04-28T00:24:25;101307.66;;;10.79;49.54
73341;BME280;61578;52.002;5.468;2023-04-28T00:24:56;101304.13;;;10.78;47.96
73341;BME280;61578;52.002;5.468;2023-04-28T00:25:27;101301.47;;;10.78;47.62
73341;BME280;61578;52.002;5.468;2023-04-28T00:25:57;101297.03;;;10.79;48.75
73341;BME280;61578;52.002;5.468;2023-04-28T00:26:28;101299.66;;;10.79;47.42
73341;BME280;61578;52.002;5.468;2023-04-28T00:26:59;101308.31;;;10.82;47.51
73341;BME280;61578;52.002;5.468;2023-04-28T00:27:32;101298.53;;;10.83;47.58
73341;BME280;61578;52.002;5.468;2023-04-28T00:28:03;101306.41;;;10.84;47.02
73341;BME280;61578;52.002;5.468;2023-04-28T00:28:33;101304.63;;;10.85;47.21
73341;BME280;61578;52.002;5.468;2023-04-28T00:29:04;101302.81;;;10.85;48.70
73341;BME280;61578;52.002;5.468;2023-04-28T00:29:41;101303.69;;;10.86;47.78
73341;BME280;61578;52.002;5.468;2023-04-28T00:30:15;101302.91;;;10.84;47.09
73341;BME280;61578;52.002;5.468;2023-04-28T00:30:46;101301.97;;;10.85;47.71
73341;BME280;61578;52.002;5.468;2023-04-28T00:31:17;101302.81;;;10.85;47.41
73341;BME280;61578;52.002;5.468;2023-04-28T00:31:48;101302.75;;;10.87;47.61
73341;BME280;61578;52.002;5.468;2023-04-28T00:32:19;101301.88;;;10.86;47.86
73341;BME280;61578;52.002;5.468;2023-04-28T00:32:50;101294.25;;;10.80;48.42
73341;BME280;61578;52.002;5.468;2023-04-28T00:33:24;101295.78;;;10.84;48.21
73341;BME280;61578;52.002;5.468;2023-04-28T00:33:55;101296.66;;;10.85;48.54
73341;BME280;61578;52.002;5.468;2023-04-28T00:34:25;101284.41;;;10.82;48.92
73341;BME280;61578;52.002;5.468;2023-04-28T00:34:56;101291.50;;;10.82;49.60
73341;BME280;61578;52.002;5.468;2023-04-28T00:35:27;101290.66;;;10.81;49.10
73341;BME280;61578;52.002;5.468;2023-04-28T00:35:59;101291.50;;;10.82;48.90
73341;BME280;61578;52.002;5.468;2023-04-28T00:36:30;101284.56;;;10.79;47.77
73341;BME280;61578;52.002;5.468;2023-04-28T00:37:02;101281.81;;;10.81;47.90
73341;BME280;61578;52.002;5.468;2023-04-28T00:37:37;101285.41;;;10.80;50.12
73341;BME280;61578;52.002;5.468;2023-04-28T00:38:08;101284.47;;;10.81;48.88
73341;BME280;61578;52.002;5.468;2023-04-28T00:38:39;101274.31;;;10.73;47.70
73341;BME280;61578;52.002;5.468;2023-04-28T00:39:10;101286.97;;;10.84;47.29
73341;BME280;61578;52.002;5.468;2023-04-28T00:39:43;101282.50;;;10.84;48.56
73341;BME280;61578;52.002;5.468;2023-04-28T00:40:17;101284.31;;;10.84;48.04
73341;BME280;61578;52.002;5.468;2023-04-28T00:40:48;101283.28;;;10.86;49.69
73341;BME280;61578;52.002;5.468;2023-04-28T00:41:19;101275.41;;;10.85;49.58
73341;BME280;61578;52.002;5.468;2023-04-28T00:41:55;101279.00;;;10.84;51.27
73341;BME280;61578;52.002;5.468;2023-04-28T00:42:27;101281.81;;;10.81;50.71
73341;BME280;61578;52.002;5.468;2023-04-28T00:43:00;101288.06;;;10.80;50.68
73341;BME280;61578;52.002;5.468;2023-04-28T00:43:43;101275.78;;;10.79;49.18
73341;BME280;61578;52.002;5.468;2023-04-28T00:44:19;101279.25;;;10.79;49.93
73341;BME280;61578;52.002;5.468;2023-04-28T00:44:51;101275.66;;;10.80;51.46
73341;BME280;61578;52.002;5.468;2023-04-28T00:45:21;101265.66;;;10.69;51.67
73341;BME280;61578;52.002;5.468;2023-04-28T00:45:52;101282.03;;;10.78;52.69
73341;BME280;61578;52.002;5.468;2023-04-28T00:46:28;101263.09;;;10.68;53.61
73341;BME280;61578;52.002;5.468;2023-04-28T00:47:00;101281.34;;;10.74;55.02
73341;BME280;61578;52.002;5.468;2023-04-28T00:47:33;101280.56;;;10.72;54.16
73341;BME280;61578;52.002;5.468;2023-04-28T00:48:07;101283.50;;;10.67;53.00
73341;BME280;61578;52.002;5.468;2023-04-28T00:48:38;101282.56;;;10.68;55.54
73341;BME280;61578;52.002;5.468;2023-04-28T00:49:09;101273.41;;;10.58;57.56
73341;BME280;61578;52.002;5.468;2023-04-28T00:49:43;101283.81;;;10.61;55.44
73341;BME280;61578;52.002;5.468;2023-04-28T00:50:15;101277.16;;;10.54;54.87
73341;BME280;61578;52.002;5.468;2023-04-28T00:50:52;101279.97;;;10.51;57.41
73341;BME280;61578;52.002;5.468;2023-04-28T00:51:23;101281.19;;;10.46;56.91
73341;BME280;61578;52.002;5.468;2023-04-28T00:51:53;101284.97;;;10.42;56.27
73341;BME280;61578;52.002;5.468;2023-04-28T00:52:24;101283.53;;;10.36;56.42
73341;BME280;61578;52.002;5.468;2023-04-28T00:52:55;101286.41;;;10.31;57.59
73341;BME280;61578;52.002;5.468;2023-04-28T00:53:26;101290.09;;;10.29;58.86
73341;BME280;61578;52.002;5.468;2023-04-28T00:53:57;101285.84;;;10.26;61.13
73341;BME280;61578;52.002;5.468;2023-04-28T00:54:28;101288.72;;;10.22;61.22
73341;BME280;61578;52.002;5.468;2023-04-28T00:54:58;101290.69;;;10.18;62.75
73341;BME280;61578;52.002;5.468;2023-04-28T00:55:32;101282.97;;;10.14;64.09
73341;BME280;61578;52.002;5.468;2023-04-28T00:56:05;101292.00;;;10.10;64.63
73341;BME280;61578;52.002;5.468;2023-04-28T00:56:36;101281.69;;;10.05;64.40
73341;BME280;61578;52.002;5.468;2023-04-28T00:57:08;101288.00;;;10.03;65.46
73341;BME280;61578;52.002;5.468;2023-04-28T00:57:40;101277.72;;;9.96;66.16
73341;BME280;61578;52.002;5.468;2023-04-28T00:58:15;101285.16;;;9.90;61.98
73341;BME280;61578;52.002;5.468;2023-04-28T00:58:46;101277.19;;;9.90;65.14
73341;BME280;61578;52.002;5.468;2023-04-28T00:59:16;101278.03;;;9.90;65.44
73341;BME280;61578;52.002;5.468;2023-04-28T00:59:47;101271.28;;;9.85;64.82
73341;BME280;61578;52.002;5.468;2023-04-28T01:00:18;101272.16;;;9.85;62.34
73341;BME280;61578;52.002;5.468;2023-04-28T01:00:49;101274.81;;;9.85;64.45
73341;BME280;61578;52.002;5.468;2023-04-28T01:01:22;101274.81;;;9.85;64.68
73341;BME280;61578;52.002;5.468;2023-04-28T01:01:53;101254.16;;;9.75;64.88
73341;BME280;61578;52.002;5.468;2023-04-28T01:02:24;101258.41;;;9.77;65.67
73341;BME280;61578;52.002;5.468;2023-04-28T01:02:59;101267.72;;;9.86;66.62
73341;BME280;61578;52.002;5.468;2023-04-28T01:03:33;101269.50;;;9.85;68.47
73341;BME280;61578;52.002;5.468;2023-04-28T01:04:06;101268.78;;;9.82;66.55
73341;BME280;61578;52.002;5.468;2023-04-28T01:04:37;101268.94;;;9.79;64.77
73341;BME280;61578;52.002;5.468;2023-04-28T01:05:08;101268.94;;;9.79;64.99
73341;BME280;61578;52.002;5.468;2023-04-28T01:05:39;101261.94;;;9.78;66.60
73341;BME280;61578;52.002;5.468;2023-04-28T01:06:11;101259.41;;;9.76;65.76
73341;BME280;61578;52.002;5.468;2023-04-28T01:06:43;101258.53;;;9.76;65.54
73341;BME280;61578;52.002;5.468;2023-04-28T01:07:15;101257.69;;;9.75;64.03
73341;BME280;61578;52.002;5.468;2023-04-28T01:07:47;101263.91;;;9.74;65.48
73341;BME280;61578;52.002;5.468;2023-04-28T01:08:22;101256.91;;;9.73;66.69
73341;BME280;61578;52.002;5.468;2023-04-28T01:08:56;101251.75;;;9.70;65.35
73341;BME280;61578;52.002;5.468;2023-04-28T01:09:27;101263.28;;;9.69;66.80
73341;BME280;61578;52.002;5.468;2023-04-28T01:09:58;101252.75;;;9.68;67.81
73341;BME280;61578;52.002;5.468;2023-04-28T01:10:29;101254.75;;;9.64;67.40
73341;BME280;61578;52.002;5.468;2023-04-28T01:11:00;101255.53;;;9.66;67.31
73341;BME280;61578;52.002;5.468;2023-04-28T01:11:39;101259.97;;;9.66;67.88
73341;BME280;61578;52.002;5.468;2023-04-28T01:12:10;101250.38;;;9.63;68.49
73341;BME280;61578;52.002;5.468;2023-04-28T01:12:43;101261.06;;;9.62;67.97
73341;BME280;61578;52.002;5.468;2023-04-28T01:13:17;101253.97;;;9.62;64.56
73341;BME280;61578;52.002;5.468;2023-04-28T01:13:47;101260.97;;;9.63;64.31
73341;BME280;61578;52.002;5.468;2023-04-28T01:14:18;101261.91;;;9.62;64.14
73341;BME280;61578;52.002;5.468;2023-04-28T01:14:49;101255.69;;;9.63;66.07
73341;BME280;61578;52.002;5.468;2023-04-28T01:15:20;101254.91;;;9.61;66.69
73341;BME280;61578;52.002;5.468;2023-04-28T01:15:51;101261.91;;;9.62;68.28
73341;BME280;61578;52.002;5.468;2023-04-28T01:16:25;101252.25;;;9.61;68.87
73341;BME280;61578;52.002;5.468;2023-04-28T01:16:56;101263.78;;;9.60;67.55
73341;BME280;61578;52.002;5.468;2023-04-28T01:17:27;101253.97;;;9.62;68.90
73341;BME280;61578;52.002;5.468;2023-04-28T01:17:59;101262.84;;;9.61;66.97
73341;BME280;61578;52.002;5.468;2023-04-28T01:18:30;101257.53;;;9.61;66.87
73341;BME280;61578;52.002;5.468;2023-04-28T01:19:02;101250.88;;;9.54;69.12
73341;BME280;61578;52.002;5.468;2023-04-28T01:19:39;101228.38;;;9.45;69.02
73341;BME280;61578;52.002;5.468;2023-04-28T01:20:10;101264.72;;;9.59;69.84
73341;BME280;61578;52.002;5.468;2023-04-28T01:20:41;101253.53;;;9.54;70.14
73341;BME280;61578;52.002;5.468;2023-04-28T01:21:25;101255.03;;;9.58;68.49
73341;BME280;61578;52.002;5.468;2023-04-28T01:21:58;101261.13;;;9.60;68.71
73341;BME280;61578;52.002;5.468;2023-04-28T01:22:29;101258.63;;;9.57;68.90
73341;BME280;61578;52.002;5.468;2023-04-28T01:22:59;101263.94;;;9.57;67.83
73341;BME280;61578;52.002;5.468;2023-04-28T01:23:30;101265.84;;;9.55;68.51
73341;BME280;61578;52.002;5.468;2023-04-28T01:24:01;101251.28;;;9.46;69.57
73341;BME280;61578;52.002;5.468;2023-04-28T01:24:32;101256.94;;;9.56;68.97
73341;BME280;61578;52.002;5.468;2023-04-28T01:25:03;101241.44;;;9.48;70.55
73341;BME280;61578;52.002;5.468;2023-04-28T01:25:34;101252.25;;;9.61;71.39
73341;BME280;61578;52.002;5.468;2023-04-28T01:26:05;101255.84;;;9.60;70.94
73341;BME280;61578;52.002;5.468;2023-04-28T01:26:36;101258.47;;;9.60;69.67
73341;BME280;61578;52.002;5.468;2023-04-28T01:27:09;101251.38;;;9.60;69.46
73341;BME280;61578;52.002;5.468;2023-04-28T01:27:40;101260.28;;;9.59;69.06
73341;BME280;61578;52.002;5.468;2023-04-28T01:28:11;101261.13;;;9.60;70.13
73341;BME280;61578;52.002;5.468;2023-04-28T01:28:44;101259.34;;;9.60;70.63
73341;BME280;61578;52.002;5.468;2023-04-28T01:29:15;101255.91;;;9.58;69.80
73341;BME280;61578;52.002;5.468;2023-04-28T01:29:46;101261.13;;;9.60;71.54
73341;BME280;61578;52.002;5.468;2023-04-28T01:30:17;101260.34;;;9.58;70.02
73341;BME280;61578;52.002;5.468;2023-04-28T01:30:48;101247.44;;;9.52;70.66
73341;BME280;61578;52.002;5.468;2023-04-28T01:31:19;101246.94;;;9.61;69.98
73341;BME280;61578;52.002;5.468;2023-04-28T01:31:50;101247.88;;;9.60;71.47
73341;BME280;61578;52.002;5.468;2023-04-28T01:32:20;101242.56;;;9.60;71.32
73341;BME280;61578;52.002;5.468;2023-04-28T01:32:51;101257.53;;;9.61;70.59
73341;BME280;61578;52.002;5.468;2023-04-28T01:33:22;101239.06;;;9.59;71.42
73341;BME280;61578;52.002;5.468;2023-04-28T01:33:52;101234.09;;;9.53;70.59
73341;BME280;61578;52.002;5.468;2023-04-28T01:34:23;101254.13;;;9.59;70.90
73341;BME280;61578;52.002;5.468;2023-04-28T01:34:54;101239.63;;;9.49;71.53
73341;BME280;61578;52.002;5.468;2023-04-28T01:35:24;101249.84;;;9.56;71.11
73341;BME280;61578;52.002;5.468;2023-04-28T01:35:58;101241.78;;;9.58;70.07
73341;BME280;61578;52.002;5.468;2023-04-28T01:36:33;101255.16;;;9.56;70.84
73341;BME280;61578;52.002;5.468;2023-04-28T01:37:03;101262.16;;;9.57;69.96
73341;BME280;61578;52.002;5.468;2023-04-28T01:37:43;101259.50;;;9.57;71.16
73341;BME280;61578;52.002;5.468;2023-04-28T01:38:14;101245.22;;;9.60;71.24
73341;BME280;61578;52.002;5.468;2023-04-28T01:38:45;101249.66;;;9.59;70.09
73341;BME280;61578;52.002;5.468;2023-04-28T01:39:15;101241.97;;;9.55;67.65
73341;BME280;61578;52.002;5.468;2023-04-28T01:39:49;101243.44;;;9.60;69.51
73341;BME280;61578;52.002;5.468;2023-04-28T01:40:20;101243.44;;;9.60;70.53
73341;BME280;61578;52.002;5.468;2023-04-28T01:40:53;101235.41;;;9.62;70.55
73341;BME280;61578;52.002;5.468;2023-04-28T01:41:24;101235.47;;;9.60;68.42
73341;BME280;61578;52.002;5.468;2023-04-28T01:41:55;101220.94;;;9.52;69.70
73341;BME280;61578;52.002;5.468;2023-04-28T01:42:26;101233.59;;;9.63;71.48
73341;BME280;61578;52.002;5.468;2023-04-28T01:43:00;101234.63;;;9.60;68.88
73341;BME280;61578;52.002;5.468;2023-04-28T01:43:33;101228.47;;;9.59;64.86
73341;BME280;61578;52.002;5.468;2023-04-28T01:44:04;101225.81;;;9.59;65.80
73341;BME280;61578;52.002;5.468;2023-04-28T01:44:36;101233.69;;;9.61;65.88
73341;BME280;61578;52.002;5.468;2023-04-28T01:45:07;101230.19;;;9.60;65.94
73341;BME280;61578;52.002;5.468;2023-04-28T01:45:39;101214.69;;;9.53;66.71
73341;BME280;61578;52.002;5.468;2023-04-28T01:46:10;101228.38;;;9.61;68.15
73341;BME280;61578;52.002;5.468;2023-04-28T01:46:41;101221.28;;;9.62;69.81
73341;BME280;61578;52.002;5.468;2023-04-28T01:47:12;101224.63;;;9.65;68.78
73341;BME280;61578;52.002;5.468;2023-04-28T01:47:42;101220.28;;;9.64;67.53
73341;BME280;61578;52.002;5.468;2023-04-28T01:48:13;101216.84;;;9.62;67.72
73341;BME280;61578;52.002;5.468;2023-04-28T01:48:44;101220.28;;;9.64;66.89
73341;BME280;61578;52.002;5.468;2023-04-28T01:49:14;101211.38;;;9.65;68.11
73341;BME280;61578;52.002;5.468;2023-04-28T01:49:45;101221.06;;;9.66;67.38
73341;BME280;61578;52.002;5.468;2023-04-28T01:50:17;101213.09;;;9.66;69.13
73341;BME280;61578;52.002;5.468;2023-04-28T01:50:51;101202.81;;;9.60;66.59
73341;BME280;61578;52.002;5.468;2023-04-28T01:51:21;101214.91;;;9.66;66.99
73341;BME280;61578;52.002;5.468;2023-04-28T01:51:52;101214.97;;;9.64;67.13
73341;BME280;61578;52.002;5.468;2023-04-28T01:52:23;101212.31;;;9.64;67.19
73341;BME280;61578;52.002;5.468;2023-04-28T01:52:54;101212.31;;;9.64;66.54
73341;BME280;61578;52.002;5.468;2023-04-28T01:53:27;101211.31;;;9.67;67.68
73341;BME280;61578;52.002;5.468;2023-04-28T01:54:00;101208.66;;;9.67;67.13
73341;BME280;61578;52.002;5.468;2023-04-28T01:54:30;101209.47;;;9.67;65.93
73341;BME280;61578;52.002;5.468;2023-04-28T01:55:04;101217.34;;;9.69;65.82
73341;BME280;61578;52.002;5.468;2023-04-28T01:55:37;101212.91;;;9.69;64.21
73341;BME280;61578;52.002;5.468;2023-04-28T01:56:08;101216.34;;;9.71;62.18
73341;BME280;61578;52.002;5.468;2023-04-28T01:56:38;101204.03;;;9.70;64.28
73341;BME280;61578;52.002;5.468;2023-04-28T01:57:09;101210.81;;;9.76;63.70
73341;BME280;61578;52.002;5.468;2023-04-28T01:57:40;101213.25;;;9.79;64.77
73341;BME280;61578;52.002;5.468;2023-04-28T01:58:10;101200.44;;;9.71;63.91
73341;BME280;61578;52.002;5.468;2023-04-28T01:58:41;101212.25;;;9.81;64.44
73341;BME280;61578;52.002;5.468;2023-04-28T01:59:20;101210.38;;;9.83;61.38
73341;BME280;61578;52.002;5.468;2023-04-28T01:59:54;101210.28;;;9.85;63.31
73341;BME280;61578;52.002;5.468;2023-04-28T02:00:26;101209.34;;;9.86;60.44
73341;BME280;61578;52.002;5.468;2023-04-28T02:00:57;101206.88;;;9.83;61.06
73341;BME280;61578;52.002;5.468;2023-04-28T02:01:28;101203.19;;;9.85;60.07
73341;BME280;61578;52.002;5.468;2023-04-28T02:01:58;101198.56;;;9.89;62.62
73341;BME280;61578;52.002;5.468;2023-04-28T02:02:29;101202.25;;;9.86;62.40
73341;BME280;61578;52.002;5.468;2023-04-28T02:03:00;101203.00;;;9.88;60.71
73341;BME280;61578;52.002;5.468;2023-04-28T02:03:31;101207.44;;;9.88;58.66
73341;BME280;61578;52.002;5.468;2023-04-28T02:04:01;101198.47;;;9.90;59.46
73341;BME280;61578;52.002;5.468;2023-04-28T02:04:32;101202.75;;;9.93;59.60
73341;BME280;61578;52.002;5.468;2023-04-28T02:05:06;101197.31;;;9.96;59.95
73341;BME280;61578;52.002;5.468;2023-04-28T02:05:37;101196.34;;;9.97;59.09
73341;BME280;61578;52.002;5.468;2023-04-28T02:06:08;101205.13;;;9.97;60.53
73341;BME280;61578;52.002;5.468;2023-04-28T02:06:39;101207.63;;;10.01;57.86
73341;BME280;61578;52.002;5.468;2023-04-28T02:07:10;101189.34;;;9.96;59.04
73341;BME280;61578;52.002;5.468;2023-04-28T02:07:40;101198.75;;;10.02;60.32
73341;BME280;61578;52.002;5.468;2023-04-28T02:08:11;101198.81;;;10.00;61.15
73341;BME280;61578;52.002;5.468;2023-04-28T02:08:42;101197.09;;;9.99;60.47
73341;BME280;61578;52.002;5.468;2023-04-28T02:09:12;101199.75;;;9.99;60.61
73341;BME280;61578;52.002;5.468;2023-04-28T02:09:43;101198.91;;;9.98;59.40
73341;BME280;61578;52.002;5.468;2023-04-28T02:10:14;101195.38;;;9.98;59.03
73341;BME280;61578;52.002;5.468;2023-04-28T02:10:45;101197.09;;;9.99;59.03
73341;BME280;61578;52.002;5.468;2023-04-28T02:11:15;101197.09;;;9.99;60.20
73341;BME280;61578;52.002;5.468;2023-04-28T02:11:46;101192.75;;;9.98;59.33
73341;BME280;61578;52.002;5.468;2023-04-28T02:12:17;101206.78;;;10.00;59.95
73341;BME280;61578;52.002;5.468;2023-04-28T02:12:48;101200.63;;;10.00;59.69
73341;BME280;61578;52.002;5.468;2023-04-28T02:13:18;101196.16;;;10.00;62.22
73341;BME280;61578;52.002;5.468;2023-04-28T02:13:49;101197.03;;;10.01;61.50
73341;BME280;61578;52.002;5.468;2023-04-28T02:14:20;101190.19;;;9.96;61.19
73341;BME280;61578;52.002;5.468;2023-04-28T02:14:51;101190.78;;;10.02;60.28
73341;BME280;61578;52.002;5.468;2023-04-28T02:15:22;101193.50;;;10.00;61.25
73341;BME280;61578;52.002;5.468;2023-04-28T02:15:53;101196.94;;;10.02;59.03
73341;BME280;61578;52.002;5.468;2023-04-28T02:16:24;101199.59;;;10.02;59.68
73341;BME280;61578;52.002;5.468;2023-04-28T02:16:55;101191.63;;;10.02;59.58
73341;BME280;61578;52.002;5.468;2023-04-28T02:17:28;101192.50;;;10.03;58.21
73341;BME280;61578;52.002;5.468;2023-04-28T02:18:00;101163.41;;;9.85;59.89
73341;BME280;61578;52.002;5.468;2023-04-28T02:18:30;101177.03;;;9.95;61.59
73341;BME280;61578;52.002;5.468;2023-04-28T02:19:01;101193.28;;;10.05;59.79
73341;BME280;61578;52.002;5.468;2023-04-28T02:19:32;101182.13;;;9.98;61.43
73341;BME280;61578;52.002;5.468;2023-04-28T02:20:03;101189.69;;;10.06;61.03
73341;BME280;61578;52.002;5.468;2023-04-28T02:20:34;101187.09;;;10.04;59.13
73341;BME280;61578;52.002;5.468;2023-04-28T02:21:11;101184.38;;;10.06;58.43
73341;BME280;61578;52.002;5.468;2023-04-28T02:21:45;101184.19;;;10.09;59.40
73341;BME280;61578;52.002;5.468;2023-04-28T02:22:15;101184.09;;;10.10;57.86
73341;BME280;61578;52.002;5.468;2023-04-28T02:22:46;101179.72;;;10.09;57.92
73341;BME280;61578;52.002;5.468;2023-04-28T02:23:17;101187.59;;;10.11;57.43
73341;BME280;61578;52.002;5.468;2023-04-28T02:23:48;101174.34;;;10.11;56.91
73341;BME280;61578;52.002;5.468;2023-04-28T02:24:19;101175.13;;;10.13;56.63
73341;BME280;61578;52.002;5.468;2023-04-28T02:24:50;101176.81;;;10.14;57.41
73341;BME280;61578;52.002;5.468;2023-04-28T02:25:21;101170.75;;;10.12;57.30
73341;BME280;61578;52.002;5.468;2023-04-28T02:25:59;101182.13;;;10.14;58.47
73341;BME280;61578;52.002;5.468;2023-04-28T02:26:32;101177.78;;;10.13;59.45
73341;BME280;61578;52.002;5.468;2023-04-28T02:27:06;101176.06;;;10.12;56.49
73341;BME280;61578;52.002;5.468;2023-04-28T02:27:37;101170.81;;;10.10;57.50
73341;BME280;61578;52.002;5.468;2023-04-28T02:28:08;101181.28;;;10.13;58.39
73341;BME280;61578;52.002;5.468;2023-04-28T02:28:38;101181.34;;;10.12;57.13
73341;BME280;61578;52.002;5.468;2023-04-28T02:29:09;101177.00;;;10.11;57.27
73341;BME280;61578;52.002;5.468;2023-04-28T02:29:40;101171.59;;;10.12;58.02
73341;BME280;61578;52.002;5.468;2023-04-28T02:30:17;101176.06;;;10.12;58.57
73341;BME280;61578;52.002;5.468;2023-04-28T02:30:48;101176.06;;;10.12;56.57
73341;BME280;61578;52.002;5.468;2023-04-28T02:31:18;101175.97;;;10.13;58.10
73341;BME280;61578;52.002;5.468;2023-04-28T02:31:53;101176.06;;;10.12;58.06
73341;BME280;61578;52.002;5.468;2023-04-28T02:32:23;101170.81;;;10.10;57.52
73341;BME280;61578;52.002;5.468;2023-04-28T02:32:54;101172.53;;;10.11;58.44
73341;BME280;61578;52.002;5.468;2023-04-28T02:33:25;101173.56;;;10.09;58.08
73341;BME280;61578;52.002;5.468;2023-04-28T02:33:56;101176.06;;;10.12;58.17
73341;BME280;61578;52.002;5.468;2023-04-28T02:34:26;101167.41;;;10.08;59.58
73341;BME280;61578;52.002;5.468;2023-04-28T02:34:57;101168.88;;;10.14;58.67
73341;BME280;61578;52.002;5.468;2023-04-28T02:35:27;101179.47;;;10.14;58.93
73341;BME280;61578;52.002;5.468;2023-04-28T02:35:59;101173.25;;;10.15;58.31
73341;BME280;61578;52.002;5.468;2023-04-28T02:36:30;101166.22;;;10.14;56.67
73341;BME280;61578;52.002;5.468;2023-04-28T02:37:02;101162.72;;;10.13;57.16
73341;BME280;61578;52.002;5.468;2023-04-28T02:37:33;101165.34;;;10.13;58.59
73341;BME280;61578;52.002;5.468;2023-04-28T02:38:04;101161.84;;;10.13;57.24
73341;BME280;61578;52.002;5.468;2023-04-28T02:38:34;101151.69;;;10.05;60.17
73341;BME280;61578;52.002;5.468;2023-04-28T02:39:05;101169.03;;;10.11;58.02
73341;BME280;61578;52.002;5.468;2023-04-28T02:39:36;101162.88;;;10.10;57.58
73341;BME280;61578;52.002;5.468;2023-04-28T02:40:07;101155.78;;;10.11;58.82
73341;BME280;61578;52.002;5.468;2023-04-28T02:40:38;101159.34;;;10.10;58.28
73341;BME280;61578;52.002;5.468;2023-04-28T02:41:10;101143.88;;;10.02;58.99
73341;BME280;61578;52.002;5.468;2023-04-28T02:41:41;101152.34;;;10.09;59.34
73341;BME280;61578;52.002;5.468;2023-04-28T02:42:11;101153.19;;;10.09;58.45
73341;BME280;61578;52.002;5.468;2023-04-28T02:42:42;101144.22;;;10.12;58.63
73341;BME280;61578;52.002;5.468;2023-04-28T02:43:13;101143.44;;;10.10;57.84
73341;BME280;61578;52.002;5.468;2023-04-28T02:43:44;101139.06;;;10.09;57.72
73341;BME280;61578;52.002;5.468;2023-04-28T02:44:14;101141.56;;;10.12;55.85
73341;BME280;61578;52.002;5.468;2023-04-28T02:44:45;101122.75;;;10.01;56.23
73341;BME280;61578;52.002;5.468;2023-04-28T02:45:20;101147.03;;;10.09;57.02
73341;BME280;61578;52.002;5.468;2023-04-28T02:45:51;101146.28;;;10.07;57.24
73341;BME280;61578;52.002;5.468;2023-04-28T02:46:22;101140.13;;;10.06;57.29